Meteógrafos Informações Meteorológicas em tempo real
Aeroporto de Congonhas
16-11-2019 23:56

Temperatura atual: 16 graus 60 F    Umidade relativa: 82 %
Velocidade do vento: 08 nós 14 Km/h    Direção: 160 graus SSE
Ajuste do altímetro ..: 1016 HPA
Visibilidade: Ótima    Tempo presente: Poucas nuvens esparsas

Observação
Poucas nuvens a 1100 Pés., Nuvens esparsas a 1300 Pés.
Data Hora BRTTempo°CUmidadePressãoVentoVisib.
16/11 - 23:56   Poucas nuvens esparsas 16° 82% 1016 Sul-sudeste/14 km/h OK
16/11 - 22:56   Parcialmente Nublado 16° 82% 1016 Sul-sudeste/16 km/h OK
16/11 - 21:55   Céu Limpo 16° 77% 1015 Sul-sudeste/12 km/h OK
16/11 - 20:56   Céu Limpo 16° 72% 1014 Sul-sudeste/16 km/h OK
16/11 - 19:56   Céu Limpo 16° 72% 1014 Sul-sudeste/16 km/h OK
16/11 - 18:56   Céu Limpo 17° 77% 1014 Sul-sudeste/19 km/h OK
16/11 - 17:56   Céu Limpo 20° 68% 1013 Sul-sudeste/14 km/h OK
16/11 - 16:56   Não Disponível 21° 64% 1013 Sul/18 km/h OK
16/11 - 15:56   Poucas nuvens esparsas 21° 64% 1013 Sul/19 km/h OK
16/11 - 14:56   Parcialmente Nublado 22° 64% 1013 Sul/21 km/h OK
16/11 - 13:56   Parcialmente Nublado 22° 60% 1013 Este-sudeste/14 km/h OK
16/11 - 13:56   Parcialmente Nublado 21° 64% 1014 Sul/14 km/h OK
16/11 - 12:55   Parcialmente Nublado 21° 60% 1014 Sul/16 km/h OK
16/11 - 11:56   Parcialmente Nublado 20° 68% 1015 Sul/18 km/h OK
16/11 - 10:56   Parcialmente Nublado 20° 64% 1015 Sul-sudeste/16 km/h OK
16/11 - 09:55   Parcialmente Nublado 20° 64% 1015 Sul-sudeste/16 km/h OK
16/11 - 08:56   Não Disponível 17° 82% 1014 Sul-sudeste/10 km/h OK
16/11 - 07:56   Céu Limpo 15° 87% 1014 Sul/5 km/h OK
16/11 - 06:56   Céu Limpo 15° 87% 1014 Sul/5 km/h OK
16/11 - 05:56   Céu Limpo 15° 87% 1013 Sul-sudeste/3 km/h OK
16/11 - 04:56   Céu Limpo 15° 87% 1012 Sul-sudeste/7 km/h OK
16/11 - 03:56   Céu Limpo 14° 93% 1013 Sul-sudeste/5 km/h OK
16/11 - 02:56   Céu Limpo 15° 87% 1013 Sul-sudeste/5 km/h OK
16/11 - 01:56   Céu Limpo 16° 87% 1014 Sul/5 km/h OK

Termo de Uso  |   Links Úteis  |   Imprensa  |  Anuncie  |  Fale Conosco  |  Versão Celular  |   Política de Privacidade

Apolo11.com - Todos os direitos reservados - 2000 - 2019

"O acaso não existe; o que chamamos de acaso é o efeito de uma causa que não conhecemos" - Voltaire